Time;durP1;ratioP1;P1;durP2;ratioP2;P2;SDS_P1;SDS_P2;PMS_P1;PMS_P2;Temp;Humidity;BMP_temperature;BMP_pressure;BME280_temperature;BME280_humidity;BME280_pressure;Samples;Min_cycle;Max_cycle;Signal;HPM_P1;HPM_P2
2021/06/15 00:00:37;;;;;;;7.43;3.67;;;;;;;14.83;68.17;100847.16;4965292;28;20173;-73
2021/06/15 00:03:03;;;;;;;6.95;3.40;;;;;;;14.75;68.17;100859.69;4956106;28;20122;-73
2021/06/15 00:05:29;;;;;;;5.85;3.67;;;;;;;14.45;69.80;100859.28;4961388;28;20117;-73
2021/06/15 00:07:54;;;;;;;6.68;3.30;;;;;;;14.35;69.20;100849.72;4963476;28;20074;-73
2021/06/15 00:10:24;;;;;;;4.78;2.50;;;;;;;14.36;69.59;100848.84;4962253;28;20039;-73
2021/06/15 00:12:51;;;;;;;6.22;3.05;;;;;;;14.44;69.03;100850.47;4963456;28;20113;-72
2021/06/15 00:15:17;;;;;;;5.10;3.03;;;;;;;14.53;68.59;100844.13;4963293;28;20035;-73
2021/06/15 00:17:43;;;;;;;4.10;2.70;;;;;;;14.53;68.34;100846.78;4962318;28;20039;-73
2021/06/15 00:20:10;;;;;;;6.97;3.28;;;;;;;14.51;68.42;100843.25;4964242;28;20030;-73
2021/06/15 00:22:35;;;;;;;4.70;2.88;;;;;;;14.47;68.53;100846.88;4961740;28;20027;-73
2021/06/15 00:25:00;;;;;;;8.27;3.53;;;;;;;14.40;68.62;100847.88;4964350;28;20498;-73
2021/06/15 00:27:29;;;;;;;7.72;3.13;;;;;;;14.37;69.19;100843.50;4961176;28;20093;-73
2021/06/15 00:29:54;;;;;;;5.72;3.30;;;;;;;14.32;69.83;100842.69;4964176;28;20125;-73
2021/06/15 00:32:19;;;;;;;6.15;3.38;;;;;;;14.33;69.99;100839.16;4962208;28;20167;-73
2021/06/15 00:34:45;;;;;;;5.90;3.10;;;;;;;14.31;69.67;100842.72;4963341;28;20122;-73
2021/06/15 00:37:10;;;;;;;5.28;3.33;;;;;;;14.36;69.35;100841.75;4945351;28;20118;-73
2021/06/15 00:39:36;;;;;;;4.90;2.83;;;;;;;14.34;69.33;100838.25;4963441;28;20039;-73
2021/06/15 00:42:02;;;;;;;5.10;2.80;;;;;;;14.36;69.01;100849.72;4962942;28;20505;-73
2021/06/15 00:44:28;;;;;;;4.80;2.85;;;;;;;14.28;68.43;100848.97;4962110;28;20039;-73
2021/06/15 00:46:53;;;;;;;7.45;3.50;;;;;;;14.24;69.65;100850.78;4963611;28;20068;-73
2021/06/15 00:49:30;;;;;;;7.55;3.70;;;;;;;14.15;70.91;100842.97;4944464;28;20114;-73
2021/06/15 00:51:56;;;;;;;6.65;3.33;;;;;;;14.14;70.90;100845.63;4961729;28;20499;-73
2021/06/15 00:54:23;;;;;;;6.70;3.38;;;;;;;14.01;70.46;100840.50;4963195;28;20057;-73
2021/06/15 00:56:49;;;;;;;5.25;3.00;;;;;;;13.97;70.47;100844.13;4945298;28;20455;-73
2021/06/15 00:59:15;;;;;;;7.78;3.65;;;;;;;13.93;70.62;100834.44;4945509;28;20562;-73
2021/06/15 01:01:41;;;;;;;6.50;3.70;;;;;;;13.91;70.69;100830.97;4958636;28;20031;-73
2021/06/15 01:04:09;;;;;;;7.10;3.30;;;;;;;13.94;70.39;100828.25;4961500;28;20391;-74
2021/06/15 01:06:48;;;;;;;4.55;2.80;;;;;;;13.96;70.84;100826.47;4946612;28;20450;-73
2021/06/15 01:09:32;;;;;;;8.65;3.70;;;;;;;13.88;71.79;100832.78;4959817;28;20031;-74
2021/06/15 01:12:12;;;;;;;5.43;3.20;;;;;;;13.81;71.05;100837.31;4940262;28;20039;-73
2021/06/15 01:15:05;;;;;;;8.07;3.13;;;;;;;13.66;71.83;100830.44;4944425;28;20502;-73
2021/06/15 01:17:56;;;;;;;4.82;3.03;;;;;;;13.58;72.16;100834.97;4962517;28;20402;-74
2021/06/15 01:20:32;;;;;;;6.20;3.10;;;;;;;13.62;71.49;100835.78;4946707;28;20051;-73
2021/06/15 01:23:41;;;;;;;10.05;3.42;;;;;;;13.54;71.83;100827.94;4956285;28;20034;-73
2021/06/15 01:26:16;;;;;;;5.78;3.63;;;;;;;13.44;72.58;100835.16;4962960;28;20584;-74
2021/06/15 01:28:58;;;;;;;6.55;4.00;;;;;;;13.37;73.39;100837.00;4957341;28;20058;-73
2021/06/15 01:31:26;;;;;;;6.25;3.55;;;;;;;13.43;73.31;100836.03;4964744;28;20039;-73
2021/06/15 01:34:03;;;;;;;6.53;3.50;;;;;;;13.39;73.23;100834.34;4950306;28;20061;-73
2021/06/15 01:36:36;;;;;;;4.82;3.22;;;;;;;13.46;71.85;100835.13;4965378;28;20031;-73
2021/06/15 01:39:08;;;;;;;4.93;2.92;;;;;;;13.43;72.72;100836.03;4948170;28;20174;-73
2021/06/15 01:41:41;;;;;;;6.75;3.35;;;;;;;13.38;72.54;100828.13;4950652;28;20030;-73
2021/06/15 01:44:10;;;;;;;5.10;3.45;;;;;;;13.37;72.26;100836.13;4947933;28;20495;-73
2021/06/15 01:46:44;;;;;;;4.65;3.33;;;;;;;13.39;72.05;100839.66;4948643;28;20529;-73
2021/06/15 01:49:14;;;;;;;7.13;3.35;;;;;;;13.44;72.36;100836.91;4928150;29;20067;-73
2021/06/15 01:51:44;;;;;;;6.65;3.30;;;;;;;13.43;72.72;100835.16;4961437;28;20047;-73
2021/06/15 01:54:11;;;;;;;5.20;2.90;;;;;;;13.41;72.10;100837.81;4948923;28;20129;-73
2021/06/15 01:56:46;;;;;;;8.75;3.90;;;;;;;13.41;72.12;100843.13;4966879;28;20406;-73
2021/06/15 01:59:16;;;;;;;5.70;3.17;;;;;;;13.40;72.01;100843.16;4964269;28;20027;-73
2021/06/15 02:01:48;;;;;;;;;;;;;;;13.33;72.71;100835.28;4945646;28;20035;-73
2021/06/15 02:04:19;;;;;;;7.30;2.97;;;;;;;13.32;71.73;100832.66;4947670;28;19964;-73
2021/06/15 02:06:47;;;;;;;6.32;3.10;;;;;;;13.32;71.96;100840.63;4948832;28;20039;-73
2021/06/15 02:09:14;;;;;;;5.45;2.78;;;;;;;13.23;72.27;100830.97;4964531;28;20122;-73
2021/06/15 02:11:56;;;;;;;6.60;3.08;;;;;;;13.19;72.21;100826.59;4946130;28;20522;-73
2021/06/15 02:14:41;;;;;;;5.55;3.17;;;;;;;13.19;72.01;100828.38;4964015;28;20159;-73
2021/06/15 02:17:22;;;;;;;5.90;3.45;;;;;;;13.12;71.95;100823.13;4964946;28;20051;-73
2021/06/15 02:20:09;;;;;;;6.95;3.08;;;;;;;13.09;72.16;100822.31;4965494;28;20443;-73
2021/06/15 02:22:35;;;;;;;7.10;3.03;;;;;;;13.07;72.27;100830.28;4964503;28;20039;-73
2021/06/15 02:25:04;;;;;;;8.57;2.78;;;;;;;13.07;72.48;100827.63;4948940;28;20038;-73
2021/06/15 02:27:33;;;;;;;9.40;3.25;;;;;;;13.02;72.29;100826.81;4963790;28;20038;-74
2021/06/15 02:30:00;;;;;;;6.93;3.83;;;;;;;13.00;72.66;100822.44;4966125;28;20513;-73
2021/06/15 02:32:35;;;;;;;5.13;3.50;;;;;;;12.92;73.33;100833.97;4932931;28;20035;-73
2021/06/15 02:35:06;;;;;;;8.15;3.28;;;;;;;12.87;73.33;100834.94;4963816;28;20027;-73
2021/06/15 02:37:46;;;;;;;5.38;3.22;;;;;;;12.85;73.20;100832.28;4949250;28;20041;-73
2021/06/15 02:40:13;;;;;;;5.35;3.55;;;;;;;12.85;72.98;100842.88;4965101;28;20031;-73
2021/06/15 02:42:45;;;;;;;5.93;3.40;;;;;;;12.84;72.68;100834.97;4946230;29;20035;-73
2021/06/15 02:45:16;;;;;;;6.70;3.30;;;;;;;12.85;72.88;100836.72;4963106;28;20031;-73
2021/06/15 02:47:44;;;;;;;6.70;3.00;;;;;;;12.79;73.00;100839.44;4948578;28;20447;-73
2021/06/15 02:50:11;;;;;;;5.35;2.78;;;;;;;12.73;73.91;100837.69;4916212;28;20522;-73
2021/06/15 02:52:45;;;;;;;7.82;3.70;;;;;;;12.71;73.63;100839.50;4947406;28;20419;-73
2021/06/15 02:55:23;;;;;;;7.07;3.42;;;;;;;12.75;73.15;100843.00;4926481;29;20036;-73
2021/06/15 02:57:49;;;;;;;6.72;3.53;;;;;;;12.75;73.46;100841.22;4944892;28;20110;-73
2021/06/15 03:00:15;;;;;;;5.85;3.33;;;;;;;12.77;72.91;100842.09;4947452;28;20062;-73
2021/06/15 03:02:41;;;;;;;7.57;4.30;;;;;;;12.80;72.99;100844.69;4964851;28;20023;-74
2021/06/15 03:05:10;;;;;;;7.00;3.42;;;;;;;12.83;72.91;100843.78;4946129;28;20167;-73
2021/06/15 03:07:37;;;;;;;5.28;3.70;;;;;;;12.87;73.06;100842.88;4948623;28;20094;-72
2021/06/15 03:10:07;;;;;;;6.60;3.70;;;;;;;12.87;73.03;100848.16;4942206;28;20114;-73
2021/06/15 03:12:38;;;;;;;6.20;3.10;;;;;;;12.85;73.61;100842.88;4965508;28;20045;-73
2021/06/15 03:15:10;;;;;;;7.28;4.00;;;;;;;12.82;73.97;100852.63;4946396;28;20189;-73
2021/06/15 03:17:42;;;;;;;8.20;3.70;;;;;;;12.86;73.77;100851.69;4945983;28;20031;-73
2021/06/15 03:20:11;;;;;;;7.20;3.67;;;;;;;12.91;72.35;100855.16;4958886;28;20399;-73
2021/06/15 03:22:53;;;;;;;6.63;3.85;;;;;;;12.92;73.57;100851.66;4964340;28;20035;-73
2021/06/15 03:25:24;;;;;;;6.40;3.65;;;;;;;12.90;73.89;100856.09;4948135;28;20030;-73
2021/06/15 03:27:59;;;;;;;8.50;4.07;;;;;;;12.87;74.47;100851.69;4943214;28;20518;-73
2021/06/15 03:30:27;;;;;;;5.13;3.28;;;;;;;12.95;73.82;100859.56;4946566;28;20039;-73
2021/06/15 03:32:58;;;;;;;6.82;4.00;;;;;;;12.97;73.31;100863.06;4964948;28;20114;-73
2021/06/15 03:35:27;;;;;;;8.15;4.38;;;;;;;13.00;73.46;100863.03;4961400;28;20113;-73
2021/06/15 03:38:02;;;;;;;8.18;4.00;;;;;;;13.05;73.98;100871.81;4945270;28;20035;-73
2021/06/15 03:40:32;;;;;;;9.35;3.80;;;;;;;13.10;73.31;100871.78;4963524;28;20038;-73
2021/06/15 03:42:59;;;;;;;8.07;3.90;;;;;;;13.20;72.87;100868.09;4957674;28;20510;-73
2021/06/15 03:45:28;;;;;;;6.95;3.33;;;;;;;13.31;73.17;100868.03;4964798;28;20038;-73
2021/06/15 03:47:55;;;;;;;7.15;3.80;;;;;;;13.37;72.98;100874.13;4958586;28;20035;-73
2021/06/15 03:50:22;;;;;;;5.95;3.80;;;;;;;13.40;73.07;100872.34;4964668;28;20110;-73
2021/06/15 03:52:53;;;;;;;8.70;4.43;;;;;;;13.47;73.16;100874.03;4962239;28;20043;-73
2021/06/15 03:55:22;;;;;;;7.47;4.97;;;;;;;13.52;72.50;100865.09;4962875;28;20041;-73
2021/06/15 03:57:48;;;;;;;8.07;4.47;;;;;;;13.55;72.73;100867.72;4932287;28;20041;-73
2021/06/15 04:00:20;;;;;;;6.78;4.38;;;;;;;13.61;72.26;100860.56;4962000;28;20039;-72
2021/06/15 04:02:48;;;;;;;9.38;4.78;;;;;;;13.71;72.66;100867.50;4955455;28;20039;-72
2021/06/15 04:05:15;;;;;;;7.78;4.05;;;;;;;13.80;72.28;100859.41;4963612;28;20089;-72
2021/06/15 04:07:44;;;;;;;7.78;4.20;;;;;;;13.86;71.85;100856.69;4963321;28;20122;-72
2021/06/15 04:10:12;;;;;;;8.15;4.47;;;;;;;13.98;71.69;100850.31;4962634;28;20039;-72
2021/06/15 04:12:38;;;;;;;9.18;4.03;;;;;;;14.10;71.72;100859.88;4964310;28;20078;-73
2021/06/15 04:15:07;;;;;;;5.78;3.97;;;;;;;14.16;71.44;100858.00;4961511;28;20067;-73
2021/06/15 04:17:36;;;;;;;8.75;4.13;;;;;;;14.29;71.07;100858.66;4957763;28;20066;-73
2021/06/15 04:20:05;;;;;;;8.30;4.53;;;;;;;14.38;71.12;100850.56;4963969;28;20074;-73
2021/06/15 04:22:34;;;;;;;8.82;4.47;;;;;;;14.51;71.22;100855.66;4962783;28;20039;-73
2021/06/15 04:25:05;;;;;;;8.40;4.60;;;;;;;14.61;70.71;100858.16;4962108;28;20035;-73
2021/06/15 04:27:31;;;;;;;7.97;4.43;;;;;;;14.71;70.61;100860.66;4964578;28;20470;-72
2021/06/15 04:29:57;;;;;;;8.80;4.97;;;;;;;14.84;70.52;100857.75;4955823;28;20032;-73
2021/06/15 04:32:32;;;;;;;7.38;4.30;;;;;;;15.03;70.00;100866.25;4958786;28;20516;-73
2021/06/15 04:35:02;;;;;;;10.68;4.93;;;;;;;15.18;70.04;100857.09;4958916;28;20046;-73
2021/06/15 04:37:31;;;;;;;6.95;4.35;;;;;;;15.31;70.07;100860.38;4959203;28;20039;-73
2021/06/15 04:40:02;;;;;;;7.68;4.60;;;;;;;15.49;69.03;100862.66;4960898;28;20070;-73
2021/06/15 04:42:36;;;;;;;11.00;4.03;;;;;;;15.65;69.46;100860.56;4961554;28;20440;-73
2021/06/15 04:45:02;;;;;;;7.85;4.85;;;;;;;15.80;68.75;100858.47;4962294;28;20034;-73
2021/06/15 04:47:30;;;;;;;7.32;4.63;;;;;;;15.97;68.59;100859.84;4963212;28;20376;-73
2021/06/15 04:50:21;;;;;;;12.50;5.15;;;;;;;16.15;67.98;100865.66;4961653;28;20031;-73
2021/06/15 04:52:50;;;;;;;11.82;5.38;;;;;;;16.28;67.51;100868.91;4962296;28;20046;-73
2021/06/15 04:55:20;;;;;;;7.53;5.05;;;;;;;16.42;66.87;100851.66;4958665;28;20051;-73
2021/06/15 04:57:47;;;;;;;10.77;5.13;;;;;;;16.50;67.40;100856.78;4961260;28;20035;-73
2021/06/15 05:00:13;;;;;;;11.52;7.38;;;;;;;16.65;66.86;100855.53;4963590;28;20050;-73
2021/06/15 05:02:40;;;;;;;13.07;7.95;;;;;;;16.79;66.55;100863.19;4962402;28;20073;-73
2021/06/15 05:05:08;;;;;;;11.90;6.28;;;;;;;16.92;66.42;100858.41;4965002;28;20130;-73
2021/06/15 05:07:34;;;;;;;9.68;5.63;;;;;;;17.02;66.13;100859.91;4967173;28;20035;-73
2021/06/15 05:10:03;;;;;;;8.40;5.18;;;;;;;17.14;65.35;100866.72;4965595;28;20031;-73
2021/06/15 05:12:38;;;;;;;10.55;5.40;;;;;;;17.25;65.29;100867.28;4968101;28;20406;-73
2021/06/15 05:15:12;;;;;;;9.60;5.13;;;;;;;17.41;64.95;100867.72;4965319;28;20047;-73
2021/06/15 05:17:40;;;;;;;10.18;5.03;;;;;;;17.39;64.82;100869.53;4965741;28;20078;-73
2021/06/15 05:20:07;;;;;;;9.73;4.93;;;;;;;17.49;64.54;100871.88;4967655;28;20035;-73
2021/06/15 05:22:39;;;;;;;7.90;4.82;;;;;;;17.58;64.11;100870.78;4964795;28;20038;-73
2021/06/15 05:25:08;;;;;;;9.43;5.63;;;;;;;17.62;63.94;100876.88;4965019;28;20034;-73
2021/06/15 05:27:33;;;;;;;9.18;5.18;;;;;;;17.66;63.88;100879.41;4966433;28;20439;-73
2021/06/15 05:30:00;;;;;;;10.15;4.97;;;;;;;17.71;64.23;100877.47;4966491;28;20027;-73
2021/06/15 05:32:27;;;;;;;7.63;4.88;;;;;;;17.72;64.18;100868.53;4965597;28;20054;-73
2021/06/15 05:34:53;;;;;;;10.43;4.93;;;;;;;17.90;63.71;100866.28;4961417;28;20086;-73
2021/06/15 05:37:18;;;;;;;8.70;5.30;;;;;;;18.05;63.50;100865.78;4950005;28;20505;-73
2021/06/15 05:39:44;;;;;;;10.50;4.90;;;;;;;18.22;63.17;100865.25;4964577;28;20047;-73
2021/06/15 05:42:12;;;;;;;8.65;4.35;;;;;;;18.32;62.88;100872.03;4967894;28;20092;-73
2021/06/15 05:44:38;;;;;;;9.13;5.05;;;;;;;18.44;62.92;100872.53;4964103;28;20454;-73
2021/06/15 05:47:03;;;;;;;8.57;5.20;;;;;;;18.51;62.37;100868.75;4967001;28;20094;-73
2021/06/15 05:49:29;;;;;;;9.13;5.68;;;;;;;18.58;61.94;100876.50;4964971;28;20476;-73
2021/06/15 05:51:59;;;;;;;12.43;5.63;;;;;;;18.72;61.47;100873.34;4966355;28;20177;-73
2021/06/15 05:54:24;;;;;;;8.82;4.57;;;;;;;18.85;60.68;100878.31;4965814;28;20514;-73
2021/06/15 05:56:50;;;;;;;9.82;4.82;;;;;;;18.93;60.40;100876.25;4965071;28;20035;-73
2021/06/15 05:59:15;;;;;;;8.25;3.88;;;;;;;19.07;60.01;100871.25;4966602;28;20380;-73
2021/06/15 06:01:41;;;;;;;11.57;4.45;;;;;;;19.13;60.24;100873.75;4964575;28;20047;-73
2021/06/15 06:04:12;;;;;;;7.72;4.53;;;;;;;19.25;59.58;100867.91;4966720;28;20039;-73
2021/06/15 06:09:21;;;;;;;11.35;5.25;;;;;;;19.40;58.80;100879.00;4964210;28;20031;-73
2021/06/15 06:11:47;;;;;;;10.55;4.82;;;;;;;19.52;58.54;100880.34;4966987;28;20050;-73
2021/06/15 06:14:12;;;;;;;10.68;4.80;;;;;;;19.63;59.08;100884.38;4963253;28;20038;-72
2021/06/15 06:16:42;;;;;;;6.97;4.55;;;;;;;19.72;58.80;100888.53;4959102;28;20443;-73
2021/06/15 06:19:08;;;;;;;11.82;5.35;;;;;;;19.76;58.38;100890.16;4966387;28;20065;-73
2021/06/15 06:21:34;;;;;;;9.68;5.03;;;;;;;19.78;58.32;100887.41;4964789;28;20523;-73
2021/06/15 06:24:01;;;;;;;8.90;5.07;;;;;;;19.82;58.36;100895.28;4965312;28;20458;-73
2021/06/15 06:26:27;;;;;;;9.05;4.43;;;;;;;19.90;58.75;100886.94;4965217;28;20128;-73
2021/06/15 06:28:52;;;;;;;10.40;4.47;;;;;;;19.98;58.82;100895.53;4964709;28;20038;-73
2021/06/15 06:31:18;;;;;;;10.52;4.88;;;;;;;20.16;58.06;100903.78;4965888;28;20121;-73
2021/06/15 06:33:44;;;;;;;7.75;4.22;;;;;;;20.24;57.87;100907.91;4963960;28;20040;-73
2021/06/15 06:36:09;;;;;;;10.77;4.05;;;;;;;20.33;57.75;100898.59;4966105;28;20549;-73
2021/06/15 06:38:34;;;;;;;8.18;4.57;;;;;;;20.51;58.04;100900.56;4963680;28;20723;-73
2021/06/15 06:41:00;;;;;;;6.90;4.15;;;;;;;20.77;56.72;100898.59;4966929;28;20023;-73
2021/06/15 06:43:25;;;;;;;6.60;4.40;;;;;;;20.80;56.03;100898.47;4963175;28;20043;-72
2021/06/15 06:45:52;;;;;;;9.23;4.03;;;;;;;20.96;55.70;100901.38;4966033;28;20073;-73
2021/06/15 06:48:18;;;;;;;7.70;3.53;;;;;;;21.16;54.98;100903.19;4963801;28;20566;-73
2021/06/15 06:50:43;;;;;;;10.55;4.20;;;;;;;21.25;53.83;100897.41;4965433;28;20126;-72
2021/06/15 06:53:09;;;;;;;10.68;5.07;;;;;;;21.35;54.29;100903.22;4964248;28;20082;-73
2021/06/15 06:55:34;;;;;;;7.93;4.85;;;;;;;21.54;54.17;100898.81;4963445;28;20122;-73
2021/06/15 06:58:00;;;;;;;9.50;4.50;;;;;;;21.68;54.02;100895.47;4962980;28;20070;-73
2021/06/15 07:00:26;;;;;;;9.35;4.68;;;;;;;21.91;52.77;100896.22;4964182;28;20037;-73
2021/06/15 07:02:52;;;;;;;7.60;3.92;;;;;;;22.09;52.93;100889.97;4965278;28;20039;-73
2021/06/15 07:05:17;;;;;;;9.88;4.15;;;;;;;22.24;51.70;100893.72;4963146;28;20038;-73
2021/06/15 07:07:43;;;;;;;6.47;3.53;;;;;;;22.34;51.51;100886.97;4965725;28;20491;-73
2021/06/15 07:10:09;;;;;;;8.23;3.88;;;;;;;22.50;51.31;100884.38;4942402;29;20040;-73
2021/06/15 07:12:35;;;;;;;8.90;3.65;;;;;;;22.60;51.79;100891.03;4966110;28;20039;-73
2021/06/15 07:15:00;;;;;;;9.40;4.47;;;;;;;22.75;51.43;100884.03;4962279;28;20058;-73
2021/06/15 07:17:25;;;;;;;7.60;3.50;;;;;;;22.87;51.29;100887.88;4963274;28;20419;-73
2021/06/15 07:19:51;;;;;;;7.82;3.83;;;;;;;23.01;50.74;100885.41;4961994;28;20411;-73
2021/06/15 07:22:16;;;;;;;7.18;3.83;;;;;;;23.09;50.12;100880.47;4963263;28;20385;-73
2021/06/15 07:24:42;;;;;;;7.85;3.63;;;;;;;23.06;50.09;100883.31;4960568;28;20047;-73
2021/06/15 07:27:08;;;;;;;5.60;3.45;;;;;;;23.16;49.60;100889.97;4964411;28;20042;-73
2021/06/15 07:29:33;;;;;;;7.50;3.40;;;;;;;23.27;50.14;100880.47;4963972;28;20067;-73
2021/06/15 07:31:59;;;;;;;5.88;3.33;;;;;;;23.30;50.06;100880.28;4963732;28;20130;-73
2021/06/15 07:34:24;;;;;;;8.60;3.47;;;;;;;23.46;49.71;100869.56;4961037;28;20051;-73
2021/06/15 07:36:50;;;;;;;8.32;3.90;;;;;;;23.66;49.61;100871.13;4957951;28;20043;-73
2021/06/15 07:39:15;;;;;;;5.80;3.50;;;;;;;23.84;48.90;100864.75;4964797;28;20109;-73
2021/06/15 07:41:41;;;;;;;8.82;4.03;;;;;;;24.00;48.46;100860.25;4962523;28;20397;-73
2021/06/15 07:44:07;;;;;;;9.18;4.80;;;;;;;24.12;47.88;100857.81;4965222;28;20533;-73
2021/06/15 07:46:32;;;;;;;8.75;4.20;;;;;;;24.26;47.71;100857.84;4956696;28;20038;-73
2021/06/15 07:48:58;;;;;;;9.68;3.90;;;;;;;24.36;47.64;100856.38;4961953;28;20098;-73
2021/06/15 07:51:23;;;;;;;6.53;3.47;;;;;;;24.25;47.99;100856.13;4965024;28;20053;-72
2021/06/15 07:53:48;;;;;;;7.82;5.03;;;;;;;24.36;47.61;100850.97;4962633;28;20114;-73
2021/06/15 07:56:14;;;;;;;7.68;4.05;;;;;;;24.51;47.28;100851.94;4964276;28;20049;-73
2021/06/15 07:58:40;;;;;;;7.90;3.05;;;;;;;24.59;46.59;100848.78;4962871;28;20043;-73
2021/06/15 08:01:05;;;;;;;6.75;2.97;;;;;;;24.70;46.82;100859.78;4962710;28;20027;-73
2021/06/15 08:03:30;;;;;;;8.07;3.20;;;;;;;24.81;45.75;100854.66;4963233;28;20048;-74
2021/06/15 08:05:56;;;;;;;8.02;3.45;;;;;;;24.98;44.96;100855.44;4962855;28;20039;-73
2021/06/15 08:08:21;;;;;;;7.10;3.42;;;;;;;25.31;45.20;100853.38;4931501;28;20459;-72
2021/06/15 08:10:47;;;;;;;4.60;2.65;;;;;;;25.48;44.81;100856.84;4962651;28;20469;-73
2021/06/15 08:13:12;;;;;;;6.03;3.33;;;;;;;25.65;44.27;100864.75;4964161;28;20038;-73
2021/06/15 08:15:37;;;;;;;6.68;2.92;;;;;;;25.82;44.16;100863.66;4962027;28;20053;-73
2021/06/15 08:18:03;;;;;;;8.00;3.08;;;;;;;25.70;43.68;100861.75;4964601;28;20035;-73
2021/06/15 08:20:28;;;;;;;6.05;3.13;;;;;;;25.87;42.99;100858.00;4961425;28;20110;-73
2021/06/15 08:22:54;;;;;;;7.30;3.03;;;;;;;25.90;43.44;100857.78;4964976;28;20073;-72
2021/06/15 08:25:19;;;;;;;7.22;3.00;;;;;;;26.05;42.99;100853.22;4961048;28;20039;-74
2021/06/15 08:27:45;;;;;;;14.68;5.32;;;;;;;26.27;42.74;100855.38;4964479;28;20109;-73
2021/06/15 08:30:12;;;;;;;8.43;2.80;;;;;;;26.52;41.77;100858.19;4961919;28;20082;-72
2021/06/15 08:32:37;;;;;;;8.43;2.80;;;;;;;26.51;41.68;100853.69;4963683;28;20414;-73
2021/06/15 08:35:04;;;;;;;6.80;2.63;;;;;;;26.41;41.23;100861.59;4962129;28;20043;-74
2021/06/15 08:37:29;;;;;;;6.40;2.42;;;;;;;26.52;41.43;100860.91;4963051;28;20074;-73
2021/06/15 08:39:55;;;;;;;6.90;3.05;;;;;;;26.47;41.76;100856.75;4962872;28;20066;-73
2021/06/15 08:42:20;;;;;;;5.63;2.83;;;;;;;26.58;41.30;100863.19;4962282;28;20047;-73
2021/06/15 08:44:45;;;;;;;6.30;3.42;;;;;;;26.95;40.66;100855.22;4963413;28;20077;-73
2021/06/15 08:47:15;;;;;;;8.93;3.05;;;;;;;27.19;40.56;100855.38;4961813;28;20057;-73
2021/06/15 08:49:44;;;;;;;6.47;2.92;;;;;;;27.32;40.53;100855.38;4964527;28;20123;-73
2021/06/15 08:52:10;;;;;;;4.78;2.70;;;;;;;27.51;39.96;100857.66;4961675;28;20035;-73
2021/06/15 08:54:36;;;;;;;14.63;5.00;;;;;;;27.48;39.72;100849.72;4963432;28;20479;-73
2021/06/15 08:57:02;;;;;;;5.82;2.80;;;;;;;27.49;39.34;100846.91;4962044;28;20082;-73
2021/06/15 08:59:30;;;;;;;4.85;2.63;;;;;;;27.44;37.58;100849.09;4962963;28;20494;-73
2021/06/15 09:01:58;;;;;;;5.40;2.33;;;;;;;27.23;37.77;100846.06;4960606;28;20035;-73
2021/06/15 09:04:24;;;;;;;5.80;2.45;;;;;;;27.07;38.72;100846.25;4963087;28;20044;-73
2021/06/15 09:06:50;;;;;;;8.23;3.05;;;;;;;27.04;39.46;100840.19;4961414;28;20043;-73
2021/06/15 09:09:16;;;;;;;7.28;2.97;;;;;;;27.44;39.51;100843.66;4964192;28;20035;-74
2021/06/15 09:11:58;;;;;;;6.88;2.60;;;;;;;27.75;37.51;100836.03;4960976;28;20039;-73
2021/06/15 09:14:47;;;;;;;6.60;2.92;;;;;;;28.10;36.63;100846.13;4961618;28;20117;-72
2021/06/15 09:17:33;;;;;;;5.88;2.92;;;;;;;28.45;36.00;100843.47;4961282;28;20480;-73
2021/06/15 09:20:16;;;;;;;9.52;6.25;;;;;;;28.88;36.11;100847.47;4959423;28;20027;-73
2021/06/15 09:22:42;;;;;;;7.07;2.75;;;;;;;28.80;34.34;100857.06;4960695;28;20046;-74
2021/06/15 09:25:12;;;;;;;6.78;3.17;;;;;;;28.61;34.63;100851.31;4963586;28;20034;-73
2021/06/15 09:27:38;;;;;;;6.07;2.83;;;;;;;28.51;35.47;100851.19;4961947;28;20047;-74
2021/06/15 09:30:12;;;;;;;6.60;3.20;;;;;;;28.63;34.92;100852.06;4962647;28;20067;-73
2021/06/15 09:32:41;;;;;;;5.82;2.83;;;;;;;28.68;35.45;100852.59;4960429;28;20463;-74
2021/06/15 09:35:15;;;;;;;7.65;3.05;;;;;;;28.77;35.83;100851.03;4960686;28;20027;-73
2021/06/15 09:37:44;;;;;;;8.65;4.57;;;;;;;28.70;36.08;100845.19;4961795;28;20042;-73
2021/06/15 09:40:17;;;;;;;10.43;4.38;;;;;;;28.83;36.09;100854.13;4962397;28;20511;-72
2021/06/15 09:43:06;;;;;;;4.70;2.80;;;;;;;28.78;34.86;100848.19;4945072;28;20628;-73
2021/06/15 09:45:35;;;;;;;5.88;3.10;;;;;;;28.56;34.66;100848.97;4963021;28;20480;-73
2021/06/15 09:48:25;;;;;;;8.13;3.38;;;;;;;28.72;35.71;100848.66;4960463;28;20047;-73
2021/06/15 09:51:02;;;;;;;6.32;3.33;;;;;;;28.73;37.28;100850.38;4963587;28;20066;-73
2021/06/15 09:53:30;;;;;;;8.07;4.25;;;;;;;28.76;35.62;100839.28;4962774;28;20420;-73
2021/06/15 09:55:58;;;;;;;7.53;3.88;;;;;;;28.80;34.80;100840.78;4965396;28;20031;-73
2021/06/15 09:58:48;;;;;;;6.97;3.35;;;;;;;28.99;35.44;100833.91;4966111;28;20032;-74
2021/06/15 10:01:33;;;;;;;5.90;2.67;;;;;;;28.70;34.92;100845.19;4964285;28;20039;-74
2021/06/15 10:04:11;;;;;;;4.72;2.80;;;;;;;28.81;34.48;100838.91;4962359;28;20089;-74
2021/06/15 10:06:39;;;;;;;5.57;3.22;;;;;;;28.90;34.55;100842.75;4964296;28;20035;-73
2021/06/15 10:09:04;;;;;;;7.13;3.22;;;;;;;28.95;34.31;100836.00;4967318;28;20117;-74
2021/06/15 10:11:33;;;;;;;5.95;3.17;;;;;;;29.26;33.44;100837.16;4964021;28;20049;-75
2021/06/15 10:14:00;;;;;;;6.97;3.45;;;;;;;29.78;32.37;100839.41;4965432;28;20062;-74
2021/06/15 10:16:25;;;;;;;5.82;3.13;;;;;;;29.47;31.23;100829.16;4969319;28;20066;-74
2021/06/15 10:18:51;;;;;;;5.55;2.50;;;;;;;29.33;31.27;100832.13;4966146;28;20038;-73
2021/06/15 10:21:17;;;;;;;6.05;3.28;;;;;;;29.19;32.03;100824.22;4963593;28;20035;-74
2021/06/15 10:23:44;;;;;;;6.85;3.22;;;;;;;29.00;32.73;100835.63;4964879;28;20041;-73
2021/06/15 10:26:10;;;;;;;5.95;3.03;;;;;;;29.18;33.35;100833.34;4961257;28;20039;-73
2021/06/15 10:28:36;;;;;;;5.88;2.85;;;;;;;29.36;34.16;100836.44;4965890;28;20039;-73
2021/06/15 10:31:03;;;;;;;5.40;3.40;;;;;;;29.14;33.49;100831.88;4963335;28;20583;-72
2021/06/15 10:33:41;;;;;;;5.90;3.42;;;;;;;29.34;34.78;100827.53;4955125;28;20035;-73
2021/06/15 10:36:06;;;;;;;5.53;3.00;;;;;;;29.16;32.77;100819.00;4964170;28;20043;-74
2021/06/15 10:38:32;;;;;;;7.10;3.60;;;;;;;29.02;32.76;100830.94;4958381;28;20078;-73
2021/06/15 10:41:01;;;;;;;5.43;2.95;;;;;;;29.03;34.34;100829.97;4964672;28;20058;-72
2021/06/15 10:43:28;;;;;;;5.32;3.45;;;;;;;28.86;33.88;100822.28;4963620;28;20054;-74
2021/06/15 10:45:59;;;;;;;6.80;3.33;;;;;;;28.74;33.44;100816.81;4966306;28;20042;-73
2021/06/15 10:48:27;;;;;;;11.60;3.30;;;;;;;28.92;34.17;100824.50;4960625;28;20171;-73
2021/06/15 10:50:54;;;;;;;5.75;3.13;;;;;;;29.25;32.79;100813.69;4964954;28;20053;-74
2021/06/15 10:53:41;;;;;;;6.53;2.85;;;;;;;29.61;31.38;100822.59;4964758;28;20035;-73
2021/06/15 10:56:12;;;;;;;7.65;3.53;;;;;;;29.55;32.86;100809.47;4961141;28;20129;-73
2021/06/15 10:58:43;;;;;;;5.65;3.10;;;;;;;29.86;32.26;100810.56;4964531;28;20035;-74
2021/06/15 11:01:22;;;;;;;6.45;3.10;;;;;;;29.96;30.49;100807.97;4963881;28;20487;-74
2021/06/15 11:03:53;;;;;;;7.82;3.25;;;;;;;29.64;30.05;100800.59;4947663;28;20381;-74
2021/06/15 11:06:29;;;;;;;7.03;3.17;;;;;;;30.07;29.24;100794.31;4963814;28;20030;-73
2021/06/15 11:09:15;;;;;;;7.10;3.40;;;;;;;30.39;30.21;100804.34;4959180;28;20035;-74
2021/06/15 11:11:44;;;;;;;7.03;3.50;;;;;;;29.89;31.23;100794.00;4962768;28;20097;-73
2021/06/15 11:14:18;;;;;;;6.05;3.35;;;;;;;30.27;29.93;100795.38;4962715;28;20114;-73
2021/06/15 11:16:52;;;;;;;5.30;3.20;;;;;;;30.69;30.57;100795.41;4964310;28;20038;-73
2021/06/15 11:19:17;;;;;;;6.82;3.67;;;;;;;30.91;29.61;100794.44;4965383;28;20097;-74
2021/06/15 11:21:52;;;;;;;6.13;3.35;;;;;;;30.84;29.30;100798.72;4962656;28;20035;-73
2021/06/15 11:24:19;;;;;;;8.82;3.85;;;;;;;30.82;29.48;100795.25;4959679;28;20046;-73
2021/06/15 11:26:47;;;;;;;6.25;3.38;;;;;;;31.01;28.71;100789.03;4964513;28;20031;-74
2021/06/15 11:29:29;;;;;;;6.35;3.28;;;;;;;31.20;29.06;100780.97;4964021;28;20491;-74
2021/06/15 11:32:28;;;;;;;10.07;6.22;;;;;;;31.73;28.78;100779.88;4962833;28;20039;-74
2021/06/15 11:34:54;;;;;;;4.45;2.95;;;;;;;31.89;28.09;100784.78;4960733;28;20043;-74
2021/06/15 11:37:21;;;;;;;5.30;3.22;;;;;;;32.13;28.56;100784.41;4963946;28;20042;-73